createdAt,value
2023-05-12T00:01:51.938Z,12.86
2023-05-12T00:06:56.093Z,12.81
2023-05-12T00:11:58.792Z,12.75
2023-05-12T00:17:01.519Z,12.74
2023-05-12T00:22:06.229Z,12.82
2023-05-12T00:27:08.969Z,12.71
2023-05-12T00:32:11.656Z,12.70
2023-05-12T00:37:15.710Z,12.63
2023-05-12T00:42:18.410Z,12.65
2023-05-12T00:47:21.617Z,12.58
2023-05-12T00:52:25.695Z,12.58
2023-05-12T00:57:28.596Z,12.52
2023-05-12T01:02:32.192Z,12.50
2023-05-12T01:07:37.041Z,12.49
2023-05-12T01:12:39.853Z,12.47
2023-05-12T01:17:48.410Z,12.47
2023-05-12T01:22:52.984Z,12.49
2023-05-12T01:27:57.596Z,12.39
2023-05-12T01:33:00.533Z,12.38
2023-05-12T01:38:04.204Z,12.38
2023-05-12T01:43:10.873Z,12.39
2023-05-12T01:48:13.576Z,12.40
2023-05-12T01:53:17.147Z,12.44
2023-05-12T01:58:21.252Z,12.36
2023-05-12T02:03:24.842Z,12.42
2023-05-12T02:08:27.944Z,12.36
2023-05-12T02:13:32.273Z,12.44
2023-05-12T02:18:35.209Z,12.32
2023-05-12T02:23:40.632Z,12.34
2023-05-12T02:28:45.001Z,12.27
2023-05-12T02:33:48.451Z,12.23
2023-05-12T02:38:51.253Z,12.30
2023-05-12T02:43:55.883Z,12.24
2023-05-12T02:48:58.722Z,12.26
2023-05-12T02:54:01.526Z,12.28
2023-05-12T02:59:05.672Z,12.26
2023-05-12T03:04:08.435Z,12.27
2023-05-12T03:09:11.408Z,12.24
2023-05-12T03:14:15.578Z,12.14
2023-05-12T03:19:18.661Z,12.14
2023-05-12T03:24:21.427Z,12.06
2023-05-12T03:29:25.575Z,12.03
2023-05-12T03:34:28.706Z,12.10
2023-05-12T03:39:34.359Z,11.99
2023-05-12T03:44:38.710Z,12.07
2023-05-12T03:49:41.596Z,12.11
2023-05-12T03:54:44.576Z,12.00
2023-05-12T03:59:48.715Z,12.09
2023-05-12T04:04:51.894Z,12.04
2023-05-12T04:09:54.619Z,12.01
2023-05-12T04:14:59.899Z,12.06
2023-05-12T04:20:02.865Z,12.05
2023-05-12T04:25:06.188Z,12.06
2023-05-12T04:30:11.040Z,12.15
2023-05-12T04:35:16.546Z,12.08
2023-05-12T04:40:19.875Z,12.19
2023-05-12T04:45:24.233Z,12.27
2023-05-12T04:50:28.488Z,12.28
2023-05-12T04:55:31.974Z,12.28
2023-05-12T05:00:36.233Z,12.40
2023-05-12T05:05:39.238Z,12.34
2023-05-12T05:10:42.038Z,12.40
2023-05-12T05:15:52.234Z,12.49
2023-05-12T05:20:58.889Z,12.58
2023-05-12T05:26:02.407Z,12.59
2023-05-12T05:31:06.847Z,12.63
2023-05-12T05:36:10.852Z,12.77
2023-05-12T05:41:14.392Z,12.80
2023-05-12T05:46:18.691Z,12.85
2023-05-12T05:51:21.581Z,12.92
2023-05-12T05:56:24.641Z,13.33
2023-05-12T06:01:28.924Z,13.42
2023-05-12T06:06:31.711Z,13.56
2023-05-12T06:11:35.918Z,13.75
2023-05-12T06:16:40.344Z,13.62
2023-05-12T06:21:43.929Z,13.61
2023-05-12T06:26:46.632Z,13.61
2023-05-12T06:31:51.074Z,13.60
2023-05-12T06:36:55.003Z,13.64
2023-05-12T06:41:58.056Z,13.83
2023-05-12T06:47:02.158Z,13.97
2023-05-12T06:52:05.238Z,14.01
2023-05-12T06:57:08.025Z,14.21
2023-05-12T07:02:12.430Z,14.19
2023-05-12T07:07:15.239Z,14.30
2023-05-12T07:12:17.910Z,14.36
2023-05-12T07:17:22.383Z,14.54
2023-05-12T07:22:25.216Z,14.70
2023-05-12T07:27:27.900Z,14.67
2023-05-12T07:32:31.994Z,14.62
2023-05-12T07:37:34.719Z,14.84
2023-05-12T07:42:37.438Z,14.91
2023-05-12T07:47:42.104Z,14.96
2023-05-12T07:52:49.883Z,15.08
2023-05-12T07:57:52.602Z,15.29
2023-05-12T08:02:56.850Z,15.23
2023-05-12T08:07:59.770Z,15.19
2023-05-12T08:13:02.473Z,15.41
2023-05-12T08:18:06.650Z,15.71
2023-05-12T08:23:09.460Z,15.79
2023-05-12T08:28:12.873Z,15.89
2023-05-12T08:33:16.999Z,16.00
2023-05-12T08:38:19.772Z,16.23
2023-05-12T08:43:25.883Z,16.45
2023-05-12T08:48:30.512Z,16.75
2023-05-12T08:53:34.625Z,17.18
2023-05-12T08:58:40.983Z,17.20
2023-05-12T09:03:46.590Z,17.19
2023-05-12T09:08:49.415Z,17.24
2023-05-12T09:14:02.648Z,18.03
2023-05-12T09:19:07.466Z,18.06
2023-05-12T09:24:10.227Z,17.75
2023-05-12T09:29:20.775Z,18.29
2023-05-12T09:34:35.649Z,17.88
2023-05-12T09:39:38.566Z,17.71
2023-05-12T09:44:41.999Z,17.42
2023-05-12T09:49:52.820Z,17.24
2023-05-12T09:54:55.771Z,18.10
2023-05-12T09:59:58.632Z,17.67
2023-05-12T10:05:07.152Z,18.59
2023-05-12T10:10:10.850Z,18.46
2023-05-12T10:15:14.710Z,18.59
2023-05-12T10:20:19.499Z,18.75
2023-05-12T10:25:23.357Z,19.59
2023-05-12T10:30:26.178Z,19.60
2023-05-12T10:35:37.756Z,19.33
2023-05-12T10:40:52.695Z,19.37
2023-05-12T10:46:11.383Z,19.85
2023-05-12T10:51:20.661Z,19.86
2023-05-12T10:56:25.191Z,20.73
2023-05-12T11:01:28.803Z,19.66
2023-05-12T11:06:34.267Z,20.52
2023-05-12T11:11:38.313Z,21.21
2023-05-12T11:16:44.091Z,21.39
2023-05-12T11:21:49.142Z,21.35
2023-05-12T11:26:52.250Z,21.00
2023-05-12T11:31:55.272Z,20.79
2023-05-12T11:36:59.471Z,20.60
2023-05-12T11:42:12.266Z,21.31
2023-05-12T11:47:17.272Z,21.38
2023-05-12T11:52:23.577Z,21.17
2023-05-12T11:57:26.983Z,21.19
2023-05-12T12:02:29.950Z,21.33
2023-05-12T12:07:35.130Z,20.93
2023-05-12T12:12:37.845Z,20.73
2023-05-12T12:17:41.058Z,20.56
2023-05-12T12:22:45.212Z,20.50
2023-05-12T12:27:48.155Z,20.58
2023-05-12T12:32:50.877Z,20.28
2023-05-12T12:37:55.390Z,20.27
2023-05-12T12:42:58.119Z,20.26
2023-05-12T12:48:00.872Z,20.19
2023-05-12T12:53:04.985Z,20.51
2023-05-12T12:58:07.712Z,20.72
2023-05-12T13:03:10.484Z,20.75
2023-05-12T13:08:14.640Z,20.98
2023-05-12T13:13:17.384Z,21.06
2023-05-12T13:18:20.649Z,20.88
2023-05-12T13:23:24.837Z,21.05
2023-05-12T13:28:27.555Z,19.60
2023-05-12T13:33:30.262Z,18.43
2023-05-12T13:38:34.811Z,18.17
2023-05-12T13:43:37.537Z,17.67
2023-05-12T13:48:40.749Z,17.72
2023-05-12T13:53:44.847Z,17.69
2023-05-12T13:58:50.635Z,17.97
2023-05-12T14:03:53.325Z,17.77
2023-05-12T14:08:57.354Z,17.91
2023-05-12T14:14:01.020Z,18.02
2023-05-12T14:19:03.911Z,18.12
2023-05-12T14:24:08.784Z,18.20
2023-05-12T14:29:11.523Z,18.24
2023-05-12T14:34:14.357Z,18.27
2023-05-12T14:39:18.423Z,18.42
2023-05-12T14:44:21.120Z,18.32
2023-05-12T14:49:23.857Z,18.40
2023-05-12T14:54:28.218Z,18.84
2023-05-12T14:59:31.231Z,18.80
2023-05-12T15:04:33.942Z,18.70
2023-05-12T15:09:38.013Z,18.74
2023-05-12T15:14:40.763Z,18.86
2023-05-12T15:19:43.478Z,19.12
2023-05-12T15:24:47.576Z,19.50
2023-05-12T15:29:50.334Z,19.69
2023-05-12T15:34:53.434Z,19.72
2023-05-12T15:39:57.488Z,19.75
2023-05-12T15:45:00.327Z,19.67
2023-05-12T15:50:03.412Z,19.67
2023-05-12T15:55:08.609Z,19.87
2023-05-12T16:00:12.811Z,19.81
2023-05-12T16:05:18.642Z,19.87
2023-05-12T16:10:23.127Z,19.73
2023-05-12T16:15:25.851Z,19.61
2023-05-12T16:20:28.917Z,19.37
2023-05-12T16:25:32.967Z,19.38
2023-05-12T16:30:35.651Z,19.28
2023-05-12T16:35:38.652Z,19.12
2023-05-12T16:40:42.772Z,19.09
2023-05-12T16:45:45.546Z,19.02
2023-05-12T16:50:48.384Z,18.90
2023-05-12T16:55:53.551Z,18.80
2023-05-12T17:00:56.296Z,18.84
2023-05-12T17:05:59.032Z,18.75
2023-05-12T17:11:03.122Z,18.65
2023-05-12T17:16:06.404Z,18.76
2023-05-12T17:21:10.562Z,18.86
2023-05-12T17:26:14.587Z,18.79
2023-05-12T17:31:17.323Z,18.76
2023-05-12T17:36:20.328Z,18.70
2023-05-12T17:41:25.127Z,18.62
2023-05-12T17:46:29.319Z,18.56
2023-05-12T17:51:32.069Z,18.61
2023-05-12T17:56:36.557Z,18.60
2023-05-12T18:01:39.682Z,18.47
2023-05-12T18:06:42.472Z,18.35
2023-05-12T18:11:47.416Z,18.20
2023-05-12T18:16:50.233Z,18.15
2023-05-12T18:21:53.313Z,17.98
2023-05-12T18:26:57.477Z,17.92
2023-05-12T18:32:00.301Z,17.88
2023-05-12T18:37:03.100Z,17.71
2023-05-12T18:42:07.565Z,17.57
2023-05-12T18:47:10.321Z,17.40
2023-05-12T18:52:13.292Z,17.31
2023-05-12T18:57:17.826Z,17.17
2023-05-12T19:02:20.800Z,17.07
2023-05-12T19:07:23.505Z,16.90
2023-05-12T19:12:27.731Z,16.82
2023-05-12T19:17:30.564Z,16.55
2023-05-12T19:22:33.996Z,16.36
2023-05-12T19:27:38.124Z,16.25
2023-05-12T19:32:42.478Z,16.06
2023-05-12T19:37:45.555Z,15.87
2023-05-12T19:42:50.328Z,15.83
2023-05-12T19:47:53.168Z,15.74
2023-05-12T19:52:56.068Z,15.66
2023-05-12T19:58:01.945Z,15.57
2023-05-12T20:03:05.381Z,15.57
2023-05-12T20:08:08.245Z,15.43
2023-05-12T20:13:12.294Z,15.34
2023-05-12T20:18:15.714Z,15.22
2023-05-12T20:23:18.550Z,15.19
2023-05-12T20:28:24.366Z,15.09
2023-05-12T20:33:28.586Z,15.06
2023-05-12T20:38:35.190Z,14.99
2023-05-12T20:43:45.155Z,14.99
2023-05-12T20:48:54.932Z,14.90
2023-05-12T20:54:02.022Z,14.80
2023-05-12T20:59:34.623Z,14.77
2023-05-12T21:04:40.594Z,14.66
2023-05-12T21:09:47.286Z,14.62
2023-05-12T21:14:56.431Z,14.56
2023-05-12T21:19:59.738Z,14.45
2023-05-12T21:25:04.206Z,14.35
2023-05-12T21:30:16.883Z,14.32
2023-05-12T21:35:34.603Z,14.24
2023-05-12T21:40:41.911Z,14.12
2023-05-12T21:45:47.637Z,14.03
2023-05-12T21:51:01.483Z,14.01
2023-05-12T21:56:07.880Z,13.98
2023-05-12T22:01:16.760Z,13.85
2023-05-12T22:06:20.753Z,13.79
2023-05-12T22:11:24.217Z,13.77
2023-05-12T22:16:38.545Z,13.67
2023-05-12T22:21:44.384Z,13.59
2023-05-12T22:26:47.150Z,13.54
2023-05-12T22:31:51.403Z,13.53
2023-05-12T22:36:54.482Z,13.56
2023-05-12T22:41:57.246Z,13.41
2023-05-12T22:47:01.387Z,13.39
2023-05-12T22:52:04.566Z,13.25
2023-05-12T22:57:07.508Z,13.34
2023-05-12T23:02:11.620Z,13.23
2023-05-12T23:07:14.324Z,13.18
2023-05-12T23:12:17.067Z,13.14
2023-05-12T23:17:21.558Z,12.92
2023-05-12T23:22:24.285Z,12.95
2023-05-12T23:27:27.142Z,12.93
2023-05-12T23:32:31.528Z,13.00
2023-05-12T23:37:34.569Z,12.79
2023-05-12T23:42:37.300Z,12.74
2023-05-12T23:47:41.470Z,12.81
2023-05-12T23:52:44.175Z,12.69
2023-05-12T23:57:46.878Z,12.65
